createdAt,value
2019-05-06T00:00:59.402Z,82.30
2019-05-06T00:05:04.134Z,85.90
2019-05-06T00:09:10.382Z,83.20
2019-05-06T00:13:15.360Z,85.40
2019-05-06T00:17:20.499Z,86.60
2019-05-06T00:21:25.553Z,86.90
2019-05-06T00:25:47.361Z,89.10
2019-05-06T00:29:54.807Z,89.10
2019-05-06T00:33:59.198Z,78.70
2019-05-06T00:38:04.731Z,81.30
2019-05-06T00:42:27.005Z,85.20
2019-05-06T00:46:34.247Z,87.50
2019-05-06T00:50:38.682Z,89.40
2019-05-06T00:54:43.720Z,82.90
2019-05-06T00:58:48.797Z,78.90
2019-05-06T01:02:54.389Z,84.50
2019-05-06T01:06:59.425Z,85.90
2019-05-06T01:11:06.508Z,88.20
2019-05-06T01:15:16.194Z,90.00
2019-05-06T01:19:21.227Z,89.80
2019-05-06T01:23:26.179Z,90.90
2019-05-06T01:27:31.136Z,92.00
2019-05-06T01:31:42.904Z,90.10
2019-05-06T01:35:44.354Z,90.60
2019-05-06T01:40:05.730Z,91.30
2019-05-06T01:44:10.938Z,90.40
2019-05-06T01:48:18.276Z,90.90
2019-05-06T01:52:24.052Z,90.00
2019-05-06T01:56:29.418Z,90.10
2019-05-06T02:00:39.446Z,88.50
2019-05-06T02:04:44.362Z,90.00
2019-05-06T02:08:49.461Z,88.60
2019-05-06T02:12:54.493Z,88.20
2019-05-06T02:16:59.426Z,85.70
2019-05-06T02:21:09.748Z,81.70
2019-05-06T02:25:18.959Z,82.70
2019-05-06T02:29:25.876Z,80.20
2019-05-06T02:33:49.698Z,85.10
2019-05-06T02:37:55.163Z,78.60
2019-05-06T02:42:03.791Z,82.40
2019-05-06T02:46:07.642Z,79.50
2019-05-06T02:50:15.308Z,81.20
2019-05-06T02:54:23.451Z,80.80
2019-05-06T02:58:28.083Z,81.30
2019-05-06T03:02:39.908Z,82.40
2019-05-06T03:06:39.961Z,83.50
2019-05-06T03:10:45.041Z,82.90
2019-05-06T03:14:53.011Z,83.20
2019-05-06T03:18:56.757Z,82.70
2019-05-06T03:23:06.275Z,80.70
2019-05-06T03:27:14.121Z,80.40
2019-05-06T03:31:17.893Z,80.20
2019-05-06T03:35:36.168Z,81.30
2019-05-06T03:39:29.519Z,82.30
2019-05-06T03:43:34.621Z,81.80
2019-05-06T03:47:50.463Z,78.70
2019-05-06T03:51:56.391Z,82.90
2019-05-06T03:56:03.373Z,80.70
2019-05-06T04:00:12.967Z,85.00
2019-05-06T04:04:17.120Z,86.30
2019-05-06T04:08:24.209Z,81.90
2019-05-06T04:12:32.924Z,75.60
2019-05-06T04:16:44.007Z,72.80
2019-05-06T04:21:08.643Z,76.60
2019-05-06T04:25:29.125Z,76.40
2019-05-06T04:29:35.683Z,74.20
2019-05-06T04:33:40.932Z,74.90
2019-05-06T04:37:46.153Z,74.30
2019-05-06T04:41:53.880Z,71.00
2019-05-06T04:46:03.225Z,70.10
2019-05-06T04:50:08.614Z,73.00
2019-05-06T04:54:13.821Z,69.50
2019-05-06T04:58:18.719Z,69.10
2019-05-06T05:02:23.836Z,70.60
2019-05-06T05:17:27.399Z,68.10
2019-05-06T05:21:36.335Z,63.90
2019-05-06T05:25:43.651Z,67.50
2019-05-06T05:29:52.045Z,65.30
2019-05-06T05:33:58.189Z,63.80
2019-05-06T05:38:04.777Z,64.20
2019-05-06T05:42:35.360Z,67.30
2019-05-06T05:46:40.220Z,61.70
2019-05-06T05:50:45.230Z,63.00
2019-05-06T05:54:52.249Z,58.70
2019-05-06T05:58:57.335Z,59.90
2019-05-06T06:03:02.904Z,60.00
2019-05-06T06:07:08.014Z,59.80
2019-05-06T06:11:22.876Z,58.40
2019-05-06T06:15:42.339Z,56.70
2019-05-06T06:19:54.457Z,55.90
2019-05-06T06:24:03.320Z,58.70
2019-05-06T06:28:08.747Z,56.00
2019-05-06T06:32:32.585Z,57.70
2019-05-06T06:36:56.626Z,53.80
2019-05-06T06:41:02.761Z,53.90
2019-05-06T06:45:08.585Z,54.20
2019-05-06T06:49:13.741Z,51.80
2019-05-06T06:53:18.623Z,52.50
2019-05-06T06:57:42.560Z,51.40
2019-05-06T07:02:02.827Z,51.10
2019-05-06T07:06:16.363Z,51.60
2019-05-06T07:10:38.522Z,51.30
2019-05-06T07:14:43.414Z,50.60
2019-05-06T07:18:48.309Z,49.10
2019-05-06T07:22:53.666Z,49.00
2019-05-06T07:27:32.586Z,50.90
2019-05-06T07:31:37.539Z,49.80
2019-05-06T07:35:43.928Z,47.70
2019-05-06T07:39:48.922Z,49.80
2019-05-06T07:44:13.043Z,47.70
2019-05-06T07:48:18.123Z,43.90
2019-05-06T07:52:23.278Z,46.00
2019-05-06T07:56:28.275Z,46.20
2019-05-06T08:00:33.392Z,45.40
2019-05-06T08:04:38.570Z,45.20
2019-05-06T08:08:43.645Z,41.50
2019-05-06T08:12:48.717Z,40.80
2019-05-06T08:17:02.222Z,40.90
2019-05-06T08:21:15.697Z,41.10
2019-05-06T08:25:22.763Z,40.50
2019-05-06T08:29:27.119Z,41.90
2019-05-06T08:33:32.770Z,40.50
2019-05-06T08:37:38.359Z,38.80
2019-05-06T08:41:43.253Z,42.40
2019-05-06T08:45:48.146Z,40.30
2019-05-06T08:50:21.809Z,38.80
2019-05-06T08:54:52.657Z,40.60
2019-05-06T08:58:57.942Z,40.30
2019-05-06T09:03:04.439Z,39.30
2019-05-06T09:07:11.532Z,38.70
2019-05-06T09:11:16.261Z,39.20
2019-05-06T09:15:21.967Z,43.40
2019-05-06T09:19:27.022Z,37.50
2019-05-06T09:23:32.724Z,37.30
2019-05-06T09:27:58.851Z,37.00
2019-05-06T09:32:08.669Z,41.40
2019-05-06T09:36:13.566Z,36.30
2019-05-06T09:40:18.599Z,37.70
2019-05-06T09:44:23.742Z,37.00
2019-05-06T09:48:52.612Z,39.90
2019-05-06T09:52:57.070Z,39.90
2019-05-06T09:57:18.051Z,35.20
2019-05-06T10:01:23.056Z,38.70
2019-05-06T10:05:27.930Z,37.90
2019-05-06T10:09:32.994Z,38.70
2019-05-06T10:13:37.959Z,37.40
2019-05-06T10:17:43.039Z,38.70
2019-05-06T10:21:47.941Z,37.00
2019-05-06T10:25:53.357Z,39.80
2019-05-06T10:30:04.685Z,37.60
2019-05-06T10:34:14.277Z,37.40
2019-05-06T10:38:58.037Z,38.80
2019-05-06T10:43:32.594Z,38.20
2019-05-06T10:47:37.586Z,40.20
2019-05-06T10:51:56.632Z,41.10
2019-05-06T10:56:10.061Z,38.20
2019-05-06T11:00:15.780Z,39.70
2019-05-06T11:04:22.482Z,40.60
2019-05-06T11:08:27.557Z,38.60
2019-05-06T11:12:32.682Z,41.10
2019-05-06T11:16:37.669Z,36.80
2019-05-06T11:20:43.850Z,36.40
2019-05-06T11:24:49.123Z,37.70
2019-05-06T11:28:58.177Z,41.60
2019-05-06T11:33:13.060Z,36.30
2019-05-06T11:37:45.983Z,38.90
2019-05-06T11:42:01.067Z,40.70
2019-05-06T11:45:48.619Z,41.10
2019-05-06T11:49:56.880Z,39.50
2019-05-06T11:54:04.381Z,39.80
2019-05-06T11:58:27.275Z,40.10
2019-05-06T12:02:32.990Z,40.90
2019-05-06T12:06:38.018Z,41.30
2019-05-06T12:10:43.196Z,42.80
2019-05-06T12:14:48.084Z,40.90
2019-05-06T12:18:53.522Z,41.40
2019-05-06T12:22:58.387Z,42.60
2019-05-06T12:27:03.452Z,43.70
2019-05-06T12:31:08.475Z,44.10
2019-05-06T12:35:13.685Z,44.10
2019-05-06T12:39:26.241Z,44.20
2019-05-06T12:43:58.982Z,44.30
2019-05-06T12:48:06.543Z,43.00
2019-05-06T12:52:12.337Z,43.60
2019-05-06T12:56:17.958Z,45.70
2019-05-06T13:00:24.099Z,43.20
2019-05-06T13:04:45.969Z,44.10
2019-05-06T13:08:53.976Z,40.60
2019-05-06T13:12:44.182Z,43.80
2019-05-06T13:16:49.140Z,42.50
2019-05-06T13:20:54.458Z,44.20
2019-05-06T13:24:59.351Z,43.60
2019-05-06T13:29:10.378Z,43.70
2019-05-06T13:33:44.396Z,44.10
2019-05-06T13:37:52.684Z,41.40
2019-05-06T13:41:57.574Z,43.10
2019-05-06T13:46:07.317Z,44.00
2019-05-06T13:50:12.261Z,47.50
2019-05-06T13:54:17.584Z,44.40
2019-05-06T13:58:22.542Z,45.50
2019-05-06T14:02:46.356Z,43.60
2019-05-06T14:06:52.761Z,43.60
2019-05-06T14:11:00.090Z,43.40
2019-05-06T14:15:05.149Z,45.20
2019-05-06T14:19:10.093Z,44.90
2019-05-06T14:23:15.051Z,44.20
2019-05-06T14:27:22.173Z,45.90
2019-05-06T14:31:35.710Z,44.80
2019-05-06T14:35:42.901Z,44.10
2019-05-06T14:39:55.441Z,42.50
2019-05-06T14:43:56.955Z,41.80
2019-05-06T14:48:01.871Z,41.70
2019-05-06T14:52:07.995Z,41.10
2019-05-06T14:56:22.565Z,41.10
2019-05-06T15:00:27.558Z,40.60
2019-05-06T15:04:33.484Z,40.70
2019-05-06T15:12:53.581Z,40.90
2019-05-06T15:16:59.552Z,41.50
2019-05-06T15:21:29.251Z,44.00
2019-05-06T15:25:17.247Z,45.10
2019-05-06T15:29:23.653Z,44.60
2019-05-06T15:33:33.271Z,41.90
2019-05-06T15:37:44.572Z,42.60
2019-05-06T15:41:49.603Z,45.90
2019-05-06T15:45:55.021Z,48.60
2019-05-06T15:50:01.156Z,46.30
2019-05-06T16:03:08.165Z,40.00
2019-05-06T16:13:16.014Z,42.70
2019-05-06T16:17:23.571Z,41.70
2019-05-06T16:21:27.965Z,40.40
2019-05-06T16:25:33.143Z,40.20
2019-05-06T16:29:38.962Z,40.20
2019-05-06T16:33:44.173Z,41.30
2019-05-06T16:37:49.095Z,40.10
2019-05-06T16:41:54.043Z,43.60
2019-05-06T16:45:59.060Z,43.10
2019-05-06T16:50:04.110Z,43.30
2019-05-06T16:54:09.079Z,43.80
2019-05-06T16:58:15.307Z,43.10
2019-05-06T17:02:26.608Z,43.30
2019-05-06T17:06:33.576Z,43.40
2019-05-06T17:10:40.235Z,42.30
2019-05-06T17:14:45.079Z,44.10
2019-05-06T17:18:53.978Z,45.00
2019-05-06T17:22:56.743Z,44.00
2019-05-06T17:27:02.693Z,46.20
2019-05-06T17:31:22.414Z,44.70
2019-05-06T17:35:27.464Z,44.40
2019-05-06T17:39:32.876Z,45.70
2019-05-06T17:43:40.916Z,45.30
2019-05-06T17:47:49.863Z,45.70
2019-05-06T17:52:03.052Z,45.60
2019-05-06T17:56:09.052Z,45.50
2019-05-06T18:00:14.995Z,47.90
2019-05-06T18:04:22.603Z,50.50
2019-05-06T18:08:26.826Z,51.70
2019-05-06T18:12:32.850Z,50.20
2019-05-06T18:16:38.298Z,51.00
2019-05-06T18:20:43.320Z,50.10
2019-05-06T18:24:48.369Z,50.10
2019-05-06T18:28:53.345Z,52.10
2019-05-06T18:32:58.273Z,50.00
2019-05-06T18:37:03.449Z,52.30
2019-05-06T18:41:08.641Z,54.50
2019-05-06T18:45:13.719Z,53.20
2019-05-06T18:49:18.634Z,56.30
2019-05-06T18:53:24.564Z,56.60
2019-05-06T18:57:29.663Z,58.60
2019-05-06T19:01:34.597Z,59.60
2019-05-06T19:05:42.717Z,62.80
2019-05-06T19:09:57.619Z,63.80
2019-05-06T19:14:02.524Z,65.20
2019-05-06T19:18:07.556Z,66.30
2019-05-06T19:22:14.074Z,67.50
2019-05-06T19:26:19.145Z,70.10
2019-05-06T19:30:24.271Z,70.50
2019-05-06T19:34:29.355Z,70.50
2019-05-06T19:38:34.352Z,70.00
2019-05-06T19:42:46.965Z,72.30
2019-05-06T19:46:46.060Z,72.10
2019-05-06T19:50:52.273Z,73.00
2019-05-06T19:54:57.656Z,73.40
2019-05-06T19:59:02.572Z,72.70
2019-05-06T20:03:07.656Z,73.30
2019-05-06T20:07:23.109Z,74.80
2019-05-06T20:11:33.458Z,76.00
2019-05-06T20:15:39.464Z,77.00
2019-05-06T20:19:44.999Z,78.20
2019-05-06T20:23:52.473Z,78.20
2019-05-06T20:27:57.515Z,78.20
2019-05-06T20:32:02.623Z,78.40
2019-05-06T20:36:07.575Z,79.60
2019-05-06T20:40:14.707Z,80.50
2019-05-06T20:44:19.668Z,80.40
2019-05-06T20:48:24.658Z,80.80
2019-05-06T20:52:33.170Z,81.80
2019-05-06T20:56:42.096Z,81.90
2019-05-06T21:00:47.213Z,82.20
2019-05-06T21:04:52.686Z,82.10
2019-05-06T21:08:57.618Z,82.70
2019-05-06T21:13:02.605Z,83.50
2019-05-06T21:17:07.570Z,83.60
2019-05-06T21:21:13.571Z,83.10
2019-05-06T21:25:18.936Z,82.60
2019-05-06T21:29:24.478Z,83.30
2019-05-06T21:33:29.419Z,83.20
2019-05-06T21:37:34.483Z,83.70
2019-05-06T21:41:39.451Z,84.10
2019-05-06T21:45:44.596Z,85.20
2019-05-06T21:49:49.492Z,86.20
2019-05-06T21:53:54.520Z,86.50
2019-05-06T21:57:59.446Z,86.80
2019-05-06T22:02:06.415Z,87.30
2019-05-06T22:06:12.998Z,87.30
2019-05-06T22:10:18.177Z,87.90
2019-05-06T22:14:23.208Z,89.00
2019-05-06T22:18:30.825Z,88.50
2019-05-06T22:22:35.157Z,87.40
2019-05-06T22:26:40.332Z,87.40
2019-05-06T22:30:45.546Z,87.40
2019-05-06T22:34:50.467Z,87.30
2019-05-06T22:38:56.024Z,88.00
2019-05-06T22:43:03.069Z,89.30
2019-05-06T22:47:07.976Z,88.90
2019-05-06T22:51:13.118Z,88.90
2019-05-06T22:55:18.040Z,89.00
2019-05-06T22:59:24.623Z,88.90
2019-05-06T23:03:31.703Z,89.50
2019-05-06T23:07:37.366Z,87.30
2019-05-06T23:11:42.537Z,87.50
2019-05-06T23:15:47.533Z,87.30
2019-05-06T23:19:52.832Z,87.50
2019-05-06T23:23:57.856Z,89.80
2019-05-06T23:28:02.909Z,89.90
2019-05-06T23:32:08.082Z,89.90
2019-05-06T23:36:13.048Z,90.00
2019-05-06T23:40:53.272Z,90.10
2019-05-06T23:45:33.571Z,90.40
2019-05-06T23:50:13.645Z,90.00
2019-05-06T23:54:53.806Z,89.50
2019-05-06T23:58:58.874Z,89.10
